Time;durP1;ratioP1;P1;durP2;ratioP2;P2;SDS_P1;SDS_P2;PMS_P1;PMS_P2;Temp;Humidity;BMP_temperature;BMP_pressure;BME280_temperature;BME280_humidity;BME280_pressure;Samples;Min_cycle;Max_cycle;Signal;HPM_P1;HPM_P2
2022/09/10 00:00:36;;;;;;;6.32;1.92;;;;;;;15.33;65.66;92381.03;5032662;28;20243;-77
2022/09/10 00:03:02;;;;;;;3.67;1.90;;;;;;;15.26;66.07;92378.88;5034700;28;20531;-77
2022/09/10 00:05:28;;;;;;;5.45;1.92;;;;;;;15.26;65.73;92373.59;5032701;28;20037;-77
2022/09/10 00:07:54;;;;;;;3.30;1.80;;;;;;;15.25;65.28;92376.56;5032166;28;20052;-76
2022/09/10 00:10:20;;;;;;;6.90;1.70;;;;;;;15.22;65.42;92372.72;5018006;28;20326;-76
2022/09/10 00:12:47;;;;;;;6.20;1.85;;;;;;;15.22;65.37;92371.91;5052440;28;20059;-76
2022/09/10 00:15:16;;;;;;;6.28;1.88;;;;;;;15.18;65.75;92374.44;5051908;28;20073;-76
2022/09/10 00:17:43;;;;;;;4.28;1.80;;;;;;;15.15;65.55;92369.78;5051470;28;20033;-76
2022/09/10 00:20:09;;;;;;;3.70;2.00;;;;;;;15.12;64.97;92373.06;5052223;28;20445;-76
2022/09/10 00:22:35;;;;;;;4.85;2.15;;;;;;;15.10;64.67;92368.09;5051524;28;20029;-77
2022/09/10 00:25:00;;;;;;;8.40;1.92;;;;;;;15.09;64.09;92374.47;5052383;28;20114;-76
2022/09/10 00:27:26;;;;;;;3.33;1.75;;;;;;;15.11;63.60;92366.25;5051945;28;20060;-76
2022/09/10 00:29:53;;;;;;;5.38;1.50;;;;;;;15.12;63.06;92363.28;5035707;28;20029;-76
2022/09/10 00:32:21;;;;;;;5.05;1.58;;;;;;;15.14;62.98;92357.69;5034947;28;20041;-76
2022/09/10 00:34:47;;;;;;;4.78;1.60;;;;;;;15.17;62.04;92355.19;5052058;28;20052;-77
2022/09/10 00:37:14;;;;;;;3.97;1.63;;;;;;;15.26;61.57;92354.38;5017355;28;20029;-76
2022/09/10 00:39:39;;;;;;;3.95;1.77;;;;;;;15.27;60.50;92361.22;5051314;28;20426;-76
2022/09/10 00:42:05;;;;;;;3.30;1.52;;;;;;;15.32;60.22;92356.53;5035249;28;20041;-77
2022/09/10 00:44:38;;;;;;;3.00;1.60;;;;;;;15.27;61.21;92364.63;5050722;28;20017;-77
2022/09/10 00:47:06;;;;;;;5.43;1.70;;;;;;;15.21;62.29;92363.25;5014542;28;20087;-77
2022/09/10 00:49:41;;;;;;;3.65;1.75;;;;;;;15.17;62.67;92355.19;5031118;28;20041;-76
2022/09/10 00:52:08;;;;;;;3.60;1.50;;;;;;;15.11;62.13;92353.84;5048016;28;20079;-77
2022/09/10 00:54:36;;;;;;;4.28;1.90;;;;;;;15.11;61.84;92355.69;5034388;28;20059;-77
2022/09/10 00:57:12;;;;;;;3.35;1.38;;;;;;;15.11;61.02;92360.97;5034005;28;20040;-77
2022/09/10 00:59:42;;;;;;;4.32;1.80;;;;;;;15.07;61.49;92360.81;5033482;28;20111;-77
2022/09/10 01:02:08;;;;;;;3.38;1.50;;;;;;;15.04;62.09;92358.84;5051858;28;20039;-76
2022/09/10 01:04:34;;;;;;;5.25;1.80;;;;;;;15.01;61.86;92362.06;5052238;28;20033;-76
2022/09/10 01:07:00;;;;;;;3.47;1.60;;;;;;;14.99;61.50;92370.31;5051721;28;20048;-77
2022/09/10 01:09:27;;;;;;;2.25;1.40;;;;;;;14.98;61.19;92358.22;5050372;28;20037;-76
2022/09/10 01:12:26;;;;;;;6.15;1.65;;;;;;;14.97;61.13;92361.94;5051299;28;20049;-77
2022/09/10 01:15:19;;;;;;;4.10;1.60;;;;;;;14.94;61.35;92367.06;5049872;28;20478;-77
2022/09/10 01:18:16;;;;;;;2.45;1.35;;;;;;;14.92;61.09;92367.38;5051827;28;20498;-77
2022/09/10 01:21:05;;;;;;;3.88;1.40;;;;;;;14.91;61.04;92373.75;5033052;28;20115;-77
2022/09/10 01:24:05;;;;;;;3.35;1.70;;;;;;;14.87;61.79;92374.69;5031584;28;20465;-76
2022/09/10 01:26:55;;;;;;;4.85;1.80;;;;;;;14.79;63.29;92381.53;5014725;28;20125;-76
2022/09/10 01:29:33;;;;;;;5.45;1.45;;;;;;;14.68;64.17;92388.22;5014756;28;20563;-76
2022/09/10 01:32:16;;;;;;;4.78;1.33;;;;;;;14.61;63.49;92377.38;5014976;28;20033;-77
2022/09/10 01:34:46;;;;;;;3.83;1.50;;;;;;;14.53;65.01;92386.84;5030782;28;20042;-76
2022/09/10 01:37:21;;;;;;;5.55;1.90;;;;;;;14.49;65.02;92383.25;4998583;28;20113;-76
2022/09/10 01:39:49;;;;;;;5.40;2.15;;;;;;;14.41;65.53;92397.22;5031359;28;20669;-76
2022/09/10 01:42:16;;;;;;;4.97;1.80;;;;;;;14.31;65.58;92393.03;5031021;28;20048;-76
2022/09/10 01:44:46;;;;;;;4.07;1.52;;;;;;;14.24;65.10;92393.50;5014634;28;20033;-76
2022/09/10 01:47:50;;;;;;;2.97;1.45;;;;;;;14.20;66.70;92387.31;5030918;28;20079;-76
2022/09/10 01:50:20;;;;;;;5.90;1.70;;;;;;;14.10;66.80;92395.53;5012632;28;20095;-76
2022/09/10 01:53:05;;;;;;;3.50;1.60;;;;;;;14.03;67.37;92397.84;5030880;28;20033;-76
2022/09/10 01:55:50;;;;;;;6.00;1.40;;;;;;;13.94;67.46;92411.78;5030777;28;20463;-76
2022/09/10 01:58:24;;;;;;;4.03;1.55;;;;;;;13.86;68.41;92414.38;5013829;28;20037;-75
2022/09/10 02:01:38;;;;;;;3.75;1.60;;;;;;;13.76;68.81;92410.19;5014166;28;20045;-76
2022/09/10 02:04:08;;;;;;;2.85;1.52;;;;;;;13.68;68.94;92405.69;5000478;28;20042;-76
2022/09/10 02:06:39;;;;;;;5.38;1.60;;;;;;;13.68;68.79;92406.47;5014065;28;20038;-76
2022/09/10 02:09:06;;;;;;;4.30;1.55;;;;;;;13.64;68.67;92402.13;5030484;28;20033;-76
2022/09/10 02:11:46;;;;;;;3.10;1.55;;;;;;;13.56;69.38;92408.91;5023613;28;20056;-76
2022/09/10 02:14:16;;;;;;;4.07;1.55;;;;;;;13.53;70.35;92407.69;5054576;28;20039;-76
2022/09/10 02:17:01;;;;;;;3.08;1.42;;;;;;;13.46;70.33;92406.56;5072108;28;20046;-76
2022/09/10 02:19:27;;;;;;;2.53;1.40;;;;;;;13.44;68.84;92401.63;5053910;28;20036;-76
2022/09/10 02:21:55;;;;;;;4.32;1.52;;;;;;;13.47;67.59;92395.75;5053488;28;20395;-76
2022/09/10 02:24:21;;;;;;;2.90;1.20;;;;;;;13.50;66.64;92392.50;5037049;28;20094;-76
2022/09/10 02:26:47;;;;;;;3.50;1.50;;;;;;;13.54;64.93;92396.06;5070671;28;20048;-76
2022/09/10 02:29:18;;;;;;;2.40;1.13;;;;;;;13.61;63.78;92398.25;5053678;28;20032;-76
2022/09/10 02:31:43;;;;;;;3.92;1.23;;;;;;;13.69;62.78;92396.69;5053393;28;20047;-76
2022/09/10 02:34:11;;;;;;;1.75;1.10;;;;;;;13.76;62.40;92397.06;5037198;28;20521;-76
2022/09/10 02:36:37;;;;;;;3.20;1.30;;;;;;;13.83;61.28;92399.22;5070369;28;20303;-76
2022/09/10 02:39:04;;;;;;;3.30;1.15;;;;;;;13.92;61.09;92402.63;5053423;28;20041;-76
2022/09/10 02:41:32;;;;;;;2.28;1.30;;;;;;;13.99;60.68;92397.69;5053500;28;20066;-76
2022/09/10 02:44:00;;;;;;;3.75;1.10;;;;;;;14.02;60.29;92399.69;5053284;28;20485;-76
2022/09/10 02:46:27;;;;;;;2.17;1.40;;;;;;;14.02;60.55;92394.44;5053210;28;20050;-76
2022/09/10 02:48:53;;;;;;;2.70;1.20;;;;;;;14.02;60.86;92396.28;5053416;28;20028;-76
2022/09/10 02:51:22;;;;;;;3.50;1.10;;;;;;;14.04;59.82;92397.53;5053891;28;20048;-76
2022/09/10 02:53:48;;;;;;;5.85;1.10;;;;;;;14.05;59.22;92395.66;5052434;28;20078;-76
2022/09/10 02:56:14;;;;;;;2.85;1.15;;;;;;;14.17;58.35;92390.56;5028828;28;20042;-76
2022/09/10 02:58:42;;;;;;;2.05;1.30;;;;;;;14.22;57.08;92400.94;5049794;28;20434;-75
2022/09/10 03:01:14;;;;;;;2.25;1.10;;;;;;;14.32;56.93;92392.75;5032937;28;20032;-76
2022/09/10 03:03:41;;;;;;;3.67;1.30;;;;;;;14.35;56.28;92397.38;5013516;28;20454;-76
2022/09/10 03:06:08;;;;;;;2.45;1.20;;;;;;;14.34;56.81;92392.41;5031445;28;20059;-76
2022/09/10 03:08:34;;;;;;;4.43;1.13;;;;;;;14.38;56.29;92388.84;5013495;28;20064;-76
2022/09/10 03:11:00;;;;;;;1.85;1.20;;;;;;;14.38;56.74;92393.34;5046545;28;20050;-75
2022/09/10 03:13:26;;;;;;;3.75;1.30;;;;;;;14.39;57.24;92397.53;5049643;28;20036;-76
2022/09/10 03:15:53;;;;;;;3.20;1.35;;;;;;;14.44;55.58;92391.34;5033479;28;20068;-76
2022/09/10 03:18:21;;;;;;;1.88;1.00;;;;;;;14.48;55.76;92392.25;5033378;28;20048;-76
2022/09/10 03:20:48;;;;;;;2.83;1.17;;;;;;;14.44;57.30;92391.34;5050117;28;20041;-76
2022/09/10 03:23:13;;;;;;;3.40;1.27;;;;;;;14.36;58.18;92395.50;5049356;28;20064;-76
2022/09/10 03:25:40;;;;;;;1.77;1.20;;;;;;;14.31;57.90;92399.06;5013375;28;20099;-76
2022/09/10 03:28:05;;;;;;;3.92;1.15;;;;;;;14.27;57.41;92400.78;5030873;28;20041;-76
2022/09/10 03:30:31;;;;;;;2.88;1.20;;;;;;;14.25;57.59;92394.28;5013370;28;20040;-76
2022/09/10 03:32:57;;;;;;;2.40;1.33;;;;;;;14.20;57.79;92400.47;5026518;28;20060;-76
2022/09/10 03:35:23;;;;;;;2.03;1.17;;;;;;;14.15;58.42;92401.41;5041728;28;20044;-76
2022/09/10 03:37:49;;;;;;;5.22;1.20;;;;;;;14.12;58.53;92407.28;5050947;28;20033;-76
2022/09/10 03:40:15;;;;;;;3.97;1.20;;;;;;;14.10;57.76;92401.56;5055836;28;20059;-76
2022/09/10 03:42:42;;;;;;;1.90;1.00;;;;;;;14.11;57.63;92402.34;5056996;28;20028;-76
2022/09/10 03:45:09;;;;;;;1.65;1.08;;;;;;;14.11;58.08;92404.97;5073057;28;20472;-75
2022/09/10 03:47:38;;;;;;;3.50;1.27;;;;;;;14.08;58.51;92406.34;5056007;28;20040;-76
2022/09/10 03:50:05;;;;;;;2.13;1.10;;;;;;;14.11;58.78;92404.97;5056290;28;20135;-76
2022/09/10 03:52:30;;;;;;;1.73;0.95;;;;;;;14.12;57.77;92409.16;5056414;28;20044;-76
2022/09/10 03:54:56;;;;;;;2.65;1.10;;;;;;;14.07;58.33;92401.41;5056300;28;20041;-76
2022/09/10 03:57:22;;;;;;;1.80;1.10;;;;;;;14.01;58.83;92410.53;5055976;28;20033;-76
2022/09/10 03:59:48;;;;;;;2.92;1.30;;;;;;;13.95;60.53;92413.31;5056284;28;20032;-75
2022/09/10 04:02:15;;;;;;;2.25;1.10;;;;;;;13.86;61.46;92414.38;5073482;28;20051;-76
2022/09/10 04:04:41;;;;;;;5.57;1.08;;;;;;;13.77;63.15;92406.47;5039641;28;20033;-76
2022/09/10 04:07:09;;;;;;;2.72;1.20;;;;;;;13.66;63.42;92405.97;5055309;28;20045;-76
2022/09/10 04:09:35;;;;;;;9.95;1.27;;;;;;;13.56;64.77;92408.16;5016597;28;20037;-76
2022/09/10 04:12:01;;;;;;;3.63;1.40;;;;;;;13.41;65.20;92404.84;5032852;28;20049;-75
2022/09/10 04:14:29;;;;;;;3.30;1.30;;;;;;;13.33;64.85;92409.00;5016211;28;20499;-76
2022/09/10 04:16:57;;;;;;;3.35;1.13;;;;;;;13.27;65.48;92410.19;5032881;28;20052;-76
2022/09/10 04:19:26;;;;;;;3.47;1.30;;;;;;;13.22;66.43;92414.81;5049311;28;20036;-75
2022/09/10 04:21:52;;;;;;;3.90;1.33;;;;;;;13.12;67.14;92424.50;5016429;28;20084;-76
2022/09/10 04:24:18;;;;;;;4.80;1.38;;;;;;;13.04;67.38;92420.00;5035014;28;20384;-76
2022/09/10 04:26:45;;;;;;;6.60;1.33;;;;;;;12.99;67.88;92430.66;5035690;28;20053;-76
2022/09/10 04:29:14;;;;;;;5.05;1.35;;;;;;;12.91;69.14;92423.47;5035871;28;20052;-76
2022/09/10 04:31:40;;;;;;;5.93;1.38;;;;;;;12.87;72.74;92422.53;5035739;28;20049;-76
2022/09/10 04:34:11;;;;;;;4.03;1.50;;;;;;;12.77;73.32;92423.56;5053342;28;20045;-76
2022/09/10 04:36:37;;;;;;;3.63;1.40;;;;;;;12.70;72.98;92424.00;5034994;28;20041;-76
2022/09/10 04:39:02;;;;;;;5.70;1.52;;;;;;;12.66;73.41;92428.28;5053307;28;20033;-76
2022/09/10 04:41:29;;;;;;;3.67;1.48;;;;;;;12.65;75.29;92431.19;5035631;28;20128;-76
2022/09/10 04:43:56;;;;;;;8.52;1.98;;;;;;;12.61;77.32;92431.03;5035623;28;20033;-76
2022/09/10 04:46:22;;;;;;;2.92;1.70;;;;;;;12.60;78.00;92433.97;5035465;28;20471;-77
2022/09/10 04:48:50;;;;;;;6.13;1.85;;;;;;;12.60;79.14;92434.72;5035132;28;20634;-76
2022/09/10 04:51:19;;;;;;;5.68;2.00;;;;;;;12.57;80.22;92440.59;5019312;28;20041;-76
2022/09/10 04:53:47;;;;;;;5.35;2.20;;;;;;;12.58;80.94;92441.34;5035155;28;20032;-77
2022/09/10 04:56:13;;;;;;;6.10;2.35;;;;;;;12.54;83.26;92441.19;5017545;28;20407;-76
2022/09/10 04:58:39;;;;;;;5.72;2.25;;;;;;;12.53;83.79;92444.88;5015359;28;20040;-76
2022/09/10 05:01:06;;;;;;;8.18;2.30;;;;;;;12.54;83.77;92445.66;5034805;28;20087;-77
2022/09/10 05:03:32;;;;;;;5.32;2.20;;;;;;;12.54;84.42;92446.44;5035196;28;20021;-77
2022/09/10 05:05:58;;;;;;;4.47;2.55;;;;;;;12.55;84.78;92445.34;5034955;28;20025;-75
2022/09/10 05:08:24;;;;;;;7.93;2.50;;;;;;;12.54;85.58;92449.06;5018565;28;20060;-75
2022/09/10 05:10:55;;;;;;;11.63;2.88;;;;;;;12.56;85.51;92454.78;5031538;28;20411;-75
2022/09/10 05:13:21;;;;;;;4.10;2.00;;;;;;;12.57;85.77;92458.97;5048295;28;20033;-76
2022/09/10 05:15:48;;;;;;;5.20;2.45;;;;;;;12.59;86.14;92456.06;5015368;28;20038;-75
2022/09/10 05:18:15;;;;;;;5.97;2.58;;;;;;;12.59;86.43;92453.44;5031621;28;20048;-75
2022/09/10 05:20:44;;;;;;;8.10;2.70;;;;;;;12.59;86.39;92458.69;5031792;28;20587;-75
2022/09/10 05:23:10;;;;;;;5.28;2.55;;;;;;;12.67;86.34;92456.09;5014769;28;20087;-75
2022/09/10 05:25:36;;;;;;;4.43;2.30;;;;;;;12.72;85.79;92457.81;5014308;28;20423;-74
2022/09/10 05:28:04;;;;;;;7.20;2.50;;;;;;;12.84;85.00;92467.78;5047546;28;20441;-75
2022/09/10 05:30:31;;;;;;;9.43;2.17;;;;;;;12.92;84.16;92467.06;5048093;28;20483;-75
2022/09/10 05:33:01;;;;;;;6.18;2.08;;;;;;;13.01;82.80;92467.09;5047690;28;20056;-75
2022/09/10 05:35:28;;;;;;;4.03;2.08;;;;;;;13.07;81.97;92469.31;5033160;28;20038;-76
2022/09/10 05:37:57;;;;;;;5.57;1.98;;;;;;;13.16;81.34;92468.59;5011247;28;20116;-75
2022/09/10 05:40:24;;;;;;;5.28;1.85;;;;;;;13.24;80.99;92473.88;5011358;28;20125;-76
2022/09/10 05:42:52;;;;;;;5.22;1.90;;;;;;;13.29;80.98;92465.13;5027596;28;20034;-75
2022/09/10 05:45:19;;;;;;;4.30;2.00;;;;;;;13.41;81.01;92475.84;5030341;28;20088;-76
2022/09/10 05:47:45;;;;;;;7.50;1.90;;;;;;;13.57;79.92;92476.19;5014493;28;20052;-76
2022/09/10 05:50:16;;;;;;;8.30;2.08;;;;;;;13.79;78.50;92472.72;5014566;28;20112;-76
2022/09/10 05:52:43;;;;;;;3.00;1.70;;;;;;;14.01;77.05;92477.09;5014516;28;20503;-76
2022/09/10 05:55:11;;;;;;;3.65;1.77;;;;;;;14.43;72.69;92474.03;5015154;28;20042;-75
2022/09/10 05:57:39;;;;;;;4.90;1.70;;;;;;;15.24;70.27;92470.72;5014725;28;20017;-76
2022/09/10 06:00:09;;;;;;;5.20;1.83;;;;;;;16.37;67.03;92478.13;5030241;28;20041;-75
2022/09/10 06:02:44;;;;;;;4.55;1.80;;;;;;;17.46;64.14;92475.44;5032154;28;20042;-75
2022/09/10 06:05:24;;;;;;;4.90;1.90;;;;;;;18.39;62.78;92480.22;5031380;28;20045;-77
2022/09/10 06:07:50;;;;;;;5.25;1.90;;;;;;;19.38;60.60;92476.09;5013680;28;20033;-77
2022/09/10 06:10:16;;;;;;;4.18;1.70;;;;;;;20.10;57.84;92483.94;5031168;28;20029;-76
2022/09/10 06:12:51;;;;;;;4.88;2.22;;;;;;;20.88;57.00;92481.44;5014050;28;20041;-77
2022/09/10 06:15:20;;;;;;;5.50;1.65;;;;;;;21.52;54.07;92473.13;5031203;28;20041;-77
2022/09/10 06:17:46;;;;;;;5.07;1.77;;;;;;;21.94;53.57;92481.06;5013605;28;20053;-76
2022/09/10 06:20:12;;;;;;;3.33;1.60;;;;;;;22.41;50.98;92473.78;5013964;28;20069;-77
2022/09/10 06:22:40;;;;;;;3.55;1.60;;;;;;;22.88;50.19;92477.81;5016226;28;20043;-83
2022/09/10 06:25:07;;;;;;;5.35;2.63;;;;;;;23.57;47.95;92474.00;5028928;28;20025;-81
2022/09/10 06:27:34;;;;;;;5.28;2.22;;;;;;;23.85;46.46;92474.28;5034680;28;20509;-79
2022/09/10 06:30:02;;;;;;;6.50;1.98;;;;;;;23.98;47.35;92471.31;5020510;28;20041;-81
2022/09/10 06:32:31;;;;;;;4.35;2.00;;;;;;;23.84;48.42;92474.66;5018415;28;20033;-79
2022/09/10 06:34:59;;;;;;;5.03;1.83;;;;;;;23.89;48.13;92469.75;5018830;28;20037;-82
2022/09/10 06:37:25;;;;;;;9.20;2.00;;;;;;;23.76;48.79;92478.41;5021313;28;20037;-82
2022/09/10 06:39:51;;;;;;;10.90;2.08;;;;;;;24.29;49.21;92467.34;5037136;28;20087;-82
2022/09/10 06:42:17;;;;;;;4.20;2.00;;;;;;;24.63;47.46;92473.34;5037179;28;20033;-81
2022/09/10 06:45:01;;;;;;;4.75;1.95;;;;;;;25.12;44.75;92474.69;5035821;28;20060;-81
2022/09/10 06:47:49;;;;;;;3.88;1.90;;;;;;;24.76;45.84;92483.72;5016334;28;20104;-81
2022/09/10 06:50:15;;;;;;;4.60;2.10;;;;;;;24.86;46.61;92483.00;5018484;28;20045;-81
2022/09/10 06:52:43;;;;;;;4.22;2.10;;;;;;;25.68;44.59;92482.50;5042404;28;20029;-81
2022/09/10 06:55:11;;;;;;;6.95;2.10;;;;;;;25.47;45.34;92483.25;5036083;28;20033;-80
2022/09/10 06:57:41;;;;;;;9.50;2.25;;;;;;;25.47;43.55;92484.00;5035685;28;20561;-82
2022/09/10 07:00:08;;;;;;;6.95;2.30;;;;;;;25.12;44.75;92485.38;5032872;28;20029;-81
2022/09/10 07:02:34;;;;;;;7.88;2.33;;;;;;;24.85;44.19;92487.56;5030306;28;20048;-81
2022/09/10 07:05:00;;;;;;;7.00;2.03;;;;;;;24.38;44.80;92485.75;5037655;28;20037;-83
2022/09/10 07:07:28;;;;;;;6.75;2.22;;;;;;;24.05;46.34;92484.75;5038095;28;20056;-82
2022/09/10 07:09:54;;;;;;;4.93;1.90;;;;;;;23.60;47.30;92482.06;5015127;28;20041;-83
2022/09/10 07:12:20;;;;;;;5.88;1.88;;;;;;;23.29;46.95;92491.28;5020379;28;20057;-83
2022/09/10 07:14:46;;;;;;;6.70;2.08;;;;;;;22.78;48.99;92489.88;5034580;28;20042;-82
2022/09/10 07:17:12;;;;;;;6.60;1.83;;;;;;;22.75;50.53;92497.84;5016916;28;20038;-81
2022/09/10 07:19:38;;;;;;;8.73;1.90;;;;;;;22.77;51.12;92490.25;5039042;28;20636;-80
2022/09/10 07:22:33;;;;;;;5.18;1.95;;;;;;;22.43;50.44;92498.19;5036936;28;20037;-83
2022/09/10 07:24:59;;;;;;;7.65;2.05;;;;;;;22.15;53.69;92496.59;4999362;28;20034;-82
2022/09/10 07:27:30;;;;;;;8.15;2.03;;;;;;;22.47;53.00;92496.31;5037952;28;20034;-82
2022/09/10 07:29:57;;;;;;;7.50;1.98;;;;;;;22.13;52.27;92501.50;5036854;28;20033;-82
2022/09/10 07:32:22;;;;;;;6.65;1.90;;;;;;;21.74;51.68;92508.88;5059019;28;20482;-82
2022/09/10 07:34:58;;;;;;;11.88;1.80;;;;;;;21.71;53.37;92502.38;4993116;28;20055;-82
2022/09/10 07:37:27;;;;;;;5.82;1.80;;;;;;;21.53;54.47;92506.63;5040554;28;20037;-82
2022/09/10 07:39:53;;;;;;;4.82;2.10;;;;;;;21.46;54.24;92509.16;5018814;28;20072;-81
2022/09/10 07:42:19;;;;;;;8.30;2.00;;;;;;;21.41;54.73;92518.19;5038140;28;20560;-80
2022/09/10 07:44:45;;;;;;;4.55;1.80;;;;;;;21.41;56.72;92520.84;5038065;28;20029;-79
2022/09/10 07:47:11;;;;;;;8.48;2.00;;;;;;;20.61;55.17;92523.06;5010512;28;20063;-79
2022/09/10 07:49:37;;;;;;;4.60;1.80;;;;;;;20.07;58.62;92527.13;5039546;28;20041;-80
2022/09/10 07:52:05;;;;;;;7.07;1.90;;;;;;;20.42;58.13;92526.41;5039825;28;20132;-79
2022/09/10 07:54:37;;;;;;;12.70;2.20;;;;;;;20.84;58.81;92519.72;5027219;28;20037;-79
2022/09/10 07:57:04;;;;;;;7.05;1.90;;;;;;;20.85;57.54;92526.56;5004137;28;20057;-77
2022/09/10 07:59:30;;;;;;;6.50;1.90;;;;;;;20.87;57.60;92517.13;5054864;28;20082;-79
2022/09/10 08:01:59;;;;;;;7.40;2.30;;;;;;;20.68;57.04;92531.19;5052493;28;20048;-77
2022/09/10 08:04:25;;;;;;;7.45;2.28;;;;;;;20.82;58.52;92528.06;5018922;28;20040;-78
2022/09/10 08:06:51;;;;;;;8.07;1.92;;;;;;;20.82;59.51;92530.72;5033738;28;20446;-78
2022/09/10 08:09:20;;;;;;;7.10;2.20;;;;;;;21.00;56.80;92529.19;5016102;28;20247;-77
2022/09/10 08:11:51;;;;;;;11.00;2.10;;;;;;;20.96;57.80;92530.22;5020087;28;20123;-78
2022/09/10 08:14:19;;;;;;;13.68;4.63;;;;;;;20.94;57.05;92527.94;5037189;28;20040;-77
2022/09/10 08:16:49;;;;;;;5.53;2.08;;;;;;;21.13;59.20;92524.50;5039168;28;20042;-78
2022/09/10 08:19:16;;;;;;;3.72;1.85;;;;;;;21.30;58.15;92525.97;5021732;28;20042;-77
2022/09/10 08:21:44;;;;;;;8.60;2.03;;;;;;;21.16;56.90;92531.00;5047529;28;20499;-77
2022/09/10 08:24:10;;;;;;;4.10;1.88;;;;;;;20.90;58.71;92526.31;5022595;28;20491;-79
2022/09/10 08:26:38;;;;;;;6.60;2.10;;;;;;;21.00;59.03;92531.06;5030025;28;20040;-79
2022/09/10 08:29:05;;;;;;;5.07;1.95;;;;;;;20.85;60.94;92529.25;5051034;28;20056;-80
2022/09/10 08:31:31;;;;;;;6.72;2.35;;;;;;;20.58;61.42;92534.41;5056069;28;20037;-83
2022/09/10 08:34:19;;;;;;;6.32;2.00;;;;;;;20.56;60.16;92537.41;5037108;28;20486;-80
2022/09/10 08:36:51;;;;;;;6.90;2.00;;;;;;;20.58;60.69;92537.81;5034864;28;20536;-81
2022/09/10 08:39:18;;;;;;;7.03;2.10;;;;;;;20.18;60.57;92532.72;5042833;28;20041;-84
2022/09/10 08:42:08;;;;;;;5.45;2.20;;;;;;;19.81;63.55;92532.19;5063379;28;20031;-80
2022/09/10 08:44:44;;;;;;;5.28;1.92;;;;;;;20.07;63.39;92542.31;5059513;28;20087;-82
2022/09/10 08:47:29;;;;;;;10.15;2.20;;;;;;;20.41;61.70;92530.19;5026898;28;20060;-81
2022/09/10 08:50:19;;;;;;;4.70;1.90;;;;;;;20.49;59.98;92539.88;5013747;28;20033;-80
2022/09/10 08:53:25;;;;;;;6.28;2.10;;;;;;;20.47;59.79;92534.13;5037573;28;20025;-81
2022/09/10 08:55:56;;;;;;;5.05;1.90;;;;;;;20.71;60.00;92537.69;5036780;28;20037;-80
2022/09/10 08:58:36;;;;;;;7.68;1.90;;;;;;;20.53;59.47;92539.94;5036472;28;20060;-81
2022/09/10 09:01:03;;;;;;;4.47;1.95;;;;;;;20.59;61.19;92534.03;5041380;28;20446;-82
2022/09/10 09:03:36;;;;;;;7.53;2.10;;;;;;;20.36;59.68;92538.44;5037144;28;20029;-83
2022/09/10 09:06:05;;;;;;;5.38;2.15;;;;;;;20.54;58.59;92534.28;5050689;28;20036;-82
2022/09/10 09:08:47;;;;;;;5.85;1.98;;;;;;;20.36;58.77;92535.78;5058800;28;20434;-81
2022/09/10 09:11:27;;;;;;;5.82;1.80;;;;;;;20.46;59.11;92540.56;5032222;28;20428;-81
2022/09/10 09:14:03;;;;;;;6.65;1.90;;;;;;;20.66;59.10;92537.97;5037958;28;20036;-81
2022/09/10 09:16:29;;;;;;;6.75;2.08;;;;;;;20.81;59.02;92534.50;5037430;28;20033;-80
2022/09/10 09:19:06;;;;;;;9.57;2.30;;;;;;;20.65;59.90;92536.41;5025359;28;20022;-80
2022/09/10 09:22:02;;;;;;;8.52;1.90;;;;;;;20.85;58.94;92538.00;5016334;28;20056;-81
2022/09/10 09:24:56;;;;;;;5.65;1.90;;;;;;;20.82;58.76;92543.25;5002750;28;20076;-81
2022/09/10 09:27:22;;;;;;;4.15;1.73;;;;;;;20.91;57.91;92539.25;5033727;28;20038;-81
2022/09/10 09:30:16;;;;;;;7.78;2.17;;;;;;;20.56;56.61;92536.59;5032611;28;20034;-82
2022/09/10 09:32:44;;;;;;;4.65;1.88;;;;;;;20.69;58.56;92539.94;5035483;28;20030;-78
2022/09/10 09:35:47;;;;;;;3.38;1.83;;;;;;;21.12;57.44;92535.47;5020145;28;20053;-78
2022/09/10 09:38:31;;;;;;;5.32;1.77;;;;;;;21.07;57.28;92533.88;5002661;28;20045;-79
2022/09/10 09:41:05;;;;;;;5.90;1.67;;;;;;;21.16;55.11;92531.00;5016535;28;20037;-79
2022/09/10 09:43:53;;;;;;;4.50;1.70;;;;;;;21.21;53.47;92533.41;5032419;28;20476;-79
2022/09/10 09:46:21;;;;;;;3.55;1.60;;;;;;;21.44;55.22;92524.72;5014919;28;20503;-79
2022/09/10 09:48:54;;;;;;;6.38;1.73;;;;;;;21.39;52.26;92531.84;5034346;28;20060;-81
2022/09/10 09:51:24;;;;;;;4.55;1.70;;;;;;;21.22;53.37;92529.63;5032437;28;20041;-79
2022/09/10 09:53:57;;;;;;;4.20;1.60;;;;;;;21.12;51.08;92530.97;5016132;28;20124;-80
2022/09/10 09:56:41;;;;;;;4.75;1.65;;;;;;;21.40;53.83;92528.09;5028473;28;20038;-80
2022/09/10 09:59:10;;;;;;;3.83;1.92;;;;;;;21.59;51.73;92523.84;5032093;28;20418;-80
2022/09/10 10:01:42;;;;;;;6.07;1.83;;;;;;;21.73;52.32;92521.44;5039618;28;20095;-79
2022/09/10 10:04:21;;;;;;;9.43;1.60;;;;;;;21.95;50.92;92521.78;5037774;28;20092;-81
2022/09/10 10:06:54;;;;;;;7.75;1.70;;;;;;;21.91;51.00;92518.28;5027009;28;20132;-78
2022/09/10 10:09:28;;;;;;;3.55;1.75;;;;;;;21.72;49.88;92519.13;5014793;28;20036;-79
2022/09/10 10:11:59;;;;;;;12.02;1.88;;;;;;;21.82;51.13;92515.88;5047681;28;20041;-77
2022/09/10 10:14:30;;;;;;;3.40;1.70;;;;;;;21.66;51.63;92520.53;5037018;28;20029;-78
2022/09/10 10:16:59;;;;;;;7.68;1.75;;;;;;;21.41;51.49;92516.31;5051447;28;20029;-77
2022/09/10 10:19:27;;;;;;;4.57;1.70;;;;;;;21.60;52.93;92512.09;5049629;28;20475;-76
2022/09/10 10:21:53;;;;;;;3.90;1.50;;;;;;;21.71;50.79;92504.28;5018241;28;20048;-78
2022/09/10 10:24:31;;;;;;;3.60;1.80;;;;;;;21.50;51.52;92508.09;5053699;28;20049;-77
2022/09/10 10:26:58;;;;;;;6.63;1.67;;;;;;;21.53;50.58;92501.31;5052398;28;20033;-78
2022/09/10 10:29:24;;;;;;;3.95;1.75;;;;;;;21.83;51.40;92501.44;5034866;28;20037;-77
2022/09/10 10:31:50;;;;;;;3.28;1.55;;;;;;;22.03;48.66;92502.13;5054451;28;20029;-79
2022/09/10 10:34:39;;;;;;;7.57;1.90;;;;;;;22.38;48.61;92501.16;5056824;28;20163;-78
2022/09/10 10:37:16;;;;;;;4.63;2.00;;;;;;;22.64;48.16;92492.38;5053287;28;20410;-77
2022/09/10 10:40:03;;;;;;;4.38;1.60;;;;;;;22.06;48.18;92496.06;5022748;28;20039;-78
2022/09/10 10:42:47;;;;;;;5.65;2.00;;;;;;;21.97;48.55;92492.88;5054986;28;20047;-78
2022/09/10 10:45:42;;;;;;;5.20;1.70;;;;;;;22.32;46.77;92494.59;5044521;28;20029;-80
2022/09/10 10:48:16;;;;;;;3.28;1.67;;;;;;;22.67;48.40;92491.63;5024928;28;20033;-81
2022/09/10 10:50:52;;;;;;;3.20;1.58;;;;;;;22.85;46.46;92482.00;5039721;28;20025;-82
2022/09/10 10:53:33;;;;;;;4.03;1.90;;;;;;;22.63;49.45;92480.94;5027671;28;20048;-81
2022/09/10 10:56:04;;;;;;;3.58;1.80;;;;;;;21.98;49.83;92481.13;5057695;28;20487;-80
2022/09/10 10:58:32;;;;;;;4.53;1.77;;;;;;;22.01;49.95;92477.72;5060750;28;20043;-82
2022/09/10 11:01:26;;;;;;;5.78;1.70;;;;;;;21.90;49.58;92482.13;5058476;28;20032;-81
2022/09/10 11:04:04;;;;;;;4.03;1.95;;;;;;;21.82;53.20;92475.91;5035071;28;20071;-80
2022/09/10 11:06:37;;;;;;;4.78;2.13;;;;;;;21.94;51.81;92478.38;5040028;28;20029;-80
2022/09/10 11:09:24;;;;;;;7.28;1.77;;;;;;;22.03;49.60;92478.91;5057020;28;20033;-80
2022/09/10 11:12:07;;;;;;;4.82;1.83;;;;;;;21.76;49.95;92472.78;5035837;28;20057;-79
2022/09/10 11:14:47;;;;;;;3.85;1.80;;;;;;;21.83;51.76;92478.22;5046322;28;20059;-80
2022/09/10 11:17:39;;;;;;;3.60;1.50;;;;;;;21.99;49.35;92474.66;5057056;28;20033;-79
2022/09/10 11:20:22;;;;;;;2.63;1.63;;;;;;;21.88;48.80;92477.16;5057094;28;20044;-79
2022/09/10 11:23:13;;;;;;;5.22;1.75;;;;;;;21.73;50.34;92468.16;5057487;28;20522;-80
2022/09/10 11:25:59;;;;;;;4.07;1.55;;;;;;;21.92;49.32;92469.97;5057443;28;20036;-80
2022/09/10 11:28:35;;;;;;;3.65;1.65;;;;;;;21.90;48.60;92461.56;5038735;28;20041;-80
2022/09/10 11:31:40;;;;;;;2.15;1.38;;;;;;;21.95;46.55;92463.97;5056675;28;20581;-79
2022/09/10 11:34:15;;;;;;;2.63;1.40;;;;;;;21.95;46.24;92465.81;5014768;28;20037;-80
2022/09/10 11:36:54;;;;;;;4.72;1.35;;;;;;;22.00;47.24;92460.22;5049383;28;20076;-79
2022/09/10 11:39:52;;;;;;;2.88;1.48;;;;;;;22.06;46.26;92460.66;5056352;28;20087;-79
2022/09/10 11:42:39;;;;;;;3.55;1.60;;;;;;;22.06;49.01;92461.44;5041288;28;20418;-80
2022/09/10 11:45:28;;;;;;;7.47;1.85;;;;;;;22.37;50.12;92460.38;5061913;28;20041;-79
2022/09/10 11:48:32;;;;;;;3.63;1.52;;;;;;;22.39;49.64;92460.03;5057794;28;20107;-79
2022/09/10 11:51:06;;;;;;;3.63;1.63;;;;;;;22.32;49.42;92455.38;5012527;28;20084;-79
2022/09/10 11:53:33;;;;;;;3.25;1.45;;;;;;;22.15;50.06;92453.94;5054751;28;20037;-79
2022/09/10 11:56:24;;;;;;;3.83;1.60;;;;;;;21.92;44.26;92456.66;5050704;28;20044;-80